Time;durP1;ratioP1;P1;durP2;ratioP2;P2;SDS_P1;SDS_P2;PMS_P1;PMS_P2;Temp;Humidity;BMP_temperature;BMP_pressure;BME280_temperature;BME280_humidity;BME280_pressure;Samples;Min_cycle;Max_cycle;Signal;HPM_P1;HPM_P2
2023/03/23 00:01:22;;;;;;;3.73;2.10;;;15.40;61.20;;;;;;5023675;28;20415;-71
2023/03/23 00:04:07;;;;;;;3.30;1.90;;;15.40;61.20;;;;;;5016317;28;20434;-71
2023/03/23 00:06:54;;;;;;;2.63;1.63;;;15.40;61.20;;;;;;5004855;28;21114;-71
2023/03/23 00:09:58;;;;;;;2.33;1.37;;;15.30;60.50;;;;;;5037640;22;20495;-72
2023/03/23 00:16:17;;;;;;;4.40;1.70;;;15.30;61.10;;;;;;5032752;28;20833;-71
2023/03/23 00:19:22;;;;;;;3.20;1.60;;;15.30;60.70;;;;;;5033665;28;20955;-70
2023/03/23 00:22:45;;;;;;;3.70;1.93;;;15.40;60.60;;;;;;4999134;28;20521;-71
2023/03/23 00:25:53;;;;;;;3.60;1.77;;;15.40;61.20;;;;;;5001406;28;20802;-70
2023/03/23 00:32:01;;;;;;;5.07;1.70;;;15.30;60.50;;;;;;5003567;28;20485;-73
2023/03/23 00:34:48;;;;;;;3.20;1.73;;;15.30;61.10;;;;;;5006280;28;23244;-71
2023/03/23 00:37:35;;;;;;;2.90;1.43;;;15.30;60.30;;;;;;5006711;28;20457;-70
2023/03/23 00:40:21;;;;;;;4.30;1.70;;;15.30;60.80;;;;;;5006561;28;20449;-70
2023/03/23 00:43:08;;;;;;;7.13;1.57;;;15.30;60.30;;;;;;4999522;28;21580;-70
2023/03/23 00:45:53;;;;;;;2.93;1.50;;;15.30;60.70;;;;;;5001487;28;20418;-70
2023/03/23 00:48:44;;;;;;;2.57;1.90;;;15.40;60.00;;;;;;5001654;28;20632;-70
2023/03/23 00:51:30;;;;;;;2.50;1.60;;;15.40;58.90;;;;;;4999026;28;20809;-70
2023/03/23 00:54:15;;;;;;;4.00;1.83;;;15.30;59.40;;;;;;4996732;28;20523;-70
2023/03/23 00:57:01;;;;;;;4.00;2.03;;;15.30;59.70;;;;;;5005004;28;20425;-70
2023/03/23 00:59:48;;;;;;;3.33;1.67;;;15.30;59.70;;;;;;5001852;28;20830;-72
2023/03/23 01:02:35;;;;;;;3.40;1.50;;;15.20;58.60;;;;;;5005132;28;20516;-71
2023/03/23 01:05:21;;;;;;;3.67;1.57;;;15.20;58.30;;;;;;5003577;28;20488;-72
2023/03/23 01:08:08;;;;;;;2.90;1.60;;;15.20;58.40;;;;;;5003965;28;20937;-70
2023/03/23 01:11:03;;;;;;;4.13;1.57;;;15.20;58.60;;;;;;5003419;28;20502;-70
2023/03/23 01:13:48;;;;;;;2.33;1.40;;;15.20;59.40;;;;;;5004454;28;20448;-71
2023/03/23 01:16:36;;;;;;;2.47;1.50;;;15.20;58.40;;;;;;5004306;28;20796;-70
2023/03/23 01:19:21;;;;;;;3.00;1.70;;;15.20;58.30;;;;;;5005320;28;20429;-72
2023/03/23 01:22:07;;;;;;;5.30;1.30;;;15.20;58.30;;;;;;5003551;28;20441;-70
2023/03/23 01:24:53;;;;;;;5.00;1.80;;;15.20;57.80;;;;;;5002855;28;20432;-72
2023/03/23 01:27:39;;;;;;;3.23;1.37;;;15.20;58.80;;;;;;5000163;28;20497;-71
2023/03/23 01:30:26;;;;;;;2.37;1.63;;;15.20;58.30;;;;;;5002303;28;20455;-71
2023/03/23 01:33:13;;;;;;;3.43;1.63;;;15.20;58.70;;;;;;5003745;28;20812;-71
2023/03/23 01:35:59;;;;;;;2.53;1.53;;;15.30;57.90;;;;;;5006697;28;20474;-70
2023/03/23 01:38:47;;;;;;;2.57;1.30;;;15.30;57.60;;;;;;5004324;28;20537;-71
2023/03/23 01:41:34;;;;;;;3.47;1.73;;;15.30;56.90;;;;;;5004615;28;20525;-70
2023/03/23 01:44:56;;;;;;;2.53;1.40;;;15.30;57.40;;;;;;5005739;28;20422;-73
2023/03/23 01:47:42;;;;;;;2.47;1.47;;;15.30;57.30;;;;;;4986590;28;20802;-70
2023/03/23 01:50:34;;;;;;;4.00;1.50;;;15.20;57.90;;;;;;5003227;28;20472;-70
2023/03/23 01:53:22;;;;;;;4.47;1.60;;;15.20;57.70;;;;;;5007318;28;20561;-70
2023/03/23 01:56:11;;;;;;;2.30;1.30;;;15.20;57.80;;;;;;5001622;28;20638;-70
2023/03/23 01:58:57;;;;;;;2.47;1.40;;;15.20;57.60;;;;;;5009157;28;20421;-71
2023/03/23 02:01:44;;;;;;;3.23;1.57;;;15.10;57.60;;;;;;5003637;28;20809;-70
2023/03/23 02:04:32;;;;;;;3.93;1.37;;;15.20;58.50;;;;;;5001196;28;20493;-70
2023/03/23 02:07:21;;;;;;;4.67;1.50;;;15.20;57.40;;;;;;5006299;28;20541;-70
2023/03/23 02:10:07;;;;;;;2.17;1.20;;;15.20;58.80;;;;;;5009699;28;20479;-71
2023/03/23 02:12:53;;;;;;;2.90;1.50;;;15.30;58.30;;;;;;5006582;28;20464;-71
2023/03/23 02:15:48;;;;;;;2.13;1.10;;;15.20;57.60;;;;;;5001450;28;20441;-71
2023/03/23 02:18:50;;;;;;;2.93;1.30;;;15.20;56.40;;;;;;5006183;28;20472;-72
2023/03/23 02:22:06;;;;;;;9.80;1.33;;;15.20;56.80;;;;;;5005456;28;20819;-73
2023/03/23 02:24:58;;;;;;;3.13;1.43;;;15.20;56.70;;;;;;5004914;28;20444;-71
2023/03/23 02:28:19;;;;;;;2.37;1.50;;;15.20;56.80;;;;;;5001512;28;20784;-70
2023/03/23 02:31:23;;;;;;;3.73;1.60;;;15.20;57.10;;;;;;5003095;28;20467;-70
2023/03/23 02:34:17;;;;;;;2.50;1.53;;;15.10;57.40;;;;;;5002614;28;20561;-70
2023/03/23 02:37:06;;;;;;;2.87;1.20;;;15.20;56.70;;;;;;5004149;28;20479;-70
2023/03/23 02:39:57;;;;;;;3.00;1.40;;;15.20;56.40;;;;;;5005986;28;20471;-70
2023/03/23 02:42:48;;;;;;;2.80;1.33;;;15.20;56.70;;;;;;5005382;28;20429;-72
2023/03/23 02:45:35;;;;;;;2.80;1.40;;;15.20;57.10;;;;;;5001710;28;20554;-71
2023/03/23 02:48:25;;;;;;;4.57;1.80;;;15.30;56.70;;;;;;4996581;28;20784;-71
2023/03/23 02:51:13;;;;;;;3.30;1.50;;;15.20;57.30;;;;;;5002998;28;20463;-70
2023/03/23 02:54:00;;;;;;;2.43;1.50;;;15.10;57.50;;;;;;5004161;28;20572;-70
2023/03/23 02:56:46;;;;;;;2.63;1.60;;;15.10;57.50;;;;;;5002939;28;20456;-70
2023/03/23 02:59:33;;;;;;;2.50;1.80;;;15.10;58.10;;;;;;5005455;28;20473;-70
2023/03/23 03:02:21;;;;;;;5.70;1.80;;;15.10;58.00;;;;;;5001157;28;20488;-71
2023/03/23 03:05:13;;;;;;;2.33;1.43;;;15.20;57.70;;;;;;5002016;28;20445;-73
2023/03/23 03:08:14;;;;;;;5.40;1.70;;;15.10;57.90;;;;;;5005260;28;20525;-70
2023/03/23 03:11:05;;;;;;;4.27;1.53;;;15.10;58.50;;;;;;4998617;28;20510;-71
2023/03/23 03:13:58;;;;;;;2.10;1.37;;;15.10;58.30;;;;;;5004346;28;20598;-70
2023/03/23 03:16:50;;;;;;;3.03;1.93;;;15.10;59.30;;;;;;5005117;28;21087;-71
2023/03/23 03:19:40;;;;;;;4.13;1.50;;;15.10;60.10;;;;;;5001331;28;20484;-70
2023/03/23 03:22:29;;;;;;;2.63;1.80;;;15.10;60.00;;;;;;5000495;28;20969;-70
2023/03/23 03:25:18;;;;;;;3.33;1.60;;;15.10;59.10;;;;;;5000145;28;20462;-72
2023/03/23 03:28:04;;;;;;;3.73;1.43;;;15.10;59.70;;;;;;5003985;28;20453;-72
2023/03/23 03:30:55;;;;;;;3.87;1.80;;;15.10;59.60;;;;;;5007229;28;20466;-72
2023/03/23 03:33:41;;;;;;;2.50;1.50;;;15.10;59.40;;;;;;4999897;28;20447;-70
2023/03/23 03:36:34;;;;;;;2.60;1.70;;;15.00;60.10;;;;;;4995704;28;20483;-71
2023/03/23 03:39:21;;;;;;;3.03;1.77;;;15.00;61.40;;;;;;5000153;28;21200;-72
2023/03/23 03:42:08;;;;;;;3.67;1.53;;;15.00;60.00;;;;;;5001399;28;20463;-71
2023/03/23 03:44:54;;;;;;;4.17;2.03;;;15.00;59.40;;;;;;5003184;28;20534;-70
2023/03/23 03:47:40;;;;;;;3.93;2.10;;;15.00;60.90;;;;;;4999591;28;20818;-71
2023/03/23 03:50:26;;;;;;;2.30;1.23;;;15.00;60.90;;;;;;5000628;28;20605;-70
2023/03/23 03:53:12;;;;;;;2.80;1.73;;;15.10;61.00;;;;;;5007570;28;20449;-70
2023/03/23 03:55:59;;;;;;;4.17;2.00;;;15.10;60.50;;;;;;5004432;28;20539;-71
2023/03/23 03:58:48;;;;;;;4.83;2.20;;;15.00;60.90;;;;;;5005211;28;20956;-70
2023/03/23 04:01:33;;;;;;;2.53;1.37;;;15.00;60.90;;;;;;4997565;28;20837;-72
2023/03/23 04:04:19;;;;;;;4.00;1.30;;;15.00;61.80;;;;;;5000327;28;20468;-71
2023/03/23 04:07:05;;;;;;;3.30;1.87;;;15.00;61.40;;;;;;5003397;28;20794;-71
2023/03/23 04:09:50;;;;;;;4.30;2.43;;;14.90;61.10;;;;;;5005539;28;20475;-71
2023/03/23 04:12:37;;;;;;;3.40;1.90;;;14.90;61.50;;;;;;5006167;28;20804;-71
2023/03/23 04:15:23;;;;;;;7.20;2.00;;;14.90;61.80;;;;;;5008275;28;20521;-70
2023/03/23 04:18:09;;;;;;;3.20;1.80;;;14.90;61.40;;;;;;5008608;28;20448;-72
2023/03/23 04:20:58;;;;;;;4.23;1.60;;;14.90;61.40;;;;;;5006856;28;20474;-71
2023/03/23 04:23:45;;;;;;;3.27;1.77;;;14.90;62.20;;;;;;5004059;28;20455;-70
2023/03/23 04:26:32;;;;;;;5.10;2.57;;;14.90;63.70;;;;;;5011434;28;20443;-70
2023/03/23 04:29:17;;;;;;;3.10;1.97;;;14.90;63.50;;;;;;5002497;28;20454;-71
2023/03/23 04:32:04;;;;;;;2.83;1.60;;;15.00;64.40;;;;;;5009394;28;20431;-71
2023/03/23 04:34:50;;;;;;;3.33;1.70;;;14.90;67.10;;;;;;5008175;28;20425;-71
2023/03/23 04:37:36;;;;;;;4.50;1.60;;;14.90;66.50;;;;;;4998331;28;20570;-71
2023/03/23 04:40:23;;;;;;;9.33;2.30;;;14.90;68.00;;;;;;5000738;28;20463;-71
2023/03/23 04:43:09;;;;;;;2.50;1.60;;;14.90;68.90;;;;;;4998047;28;20434;-70
2023/03/23 04:45:56;;;;;;;2.77;1.77;;;14.80;69.00;;;;;;4999343;28;20434;-72
2023/03/23 04:48:43;;;;;;;2.53;1.90;;;14.90;68.30;;;;;;5000182;28;20988;-73
2023/03/23 04:51:31;;;;;;;3.23;1.90;;;14.90;69.60;;;;;;5010973;28;20986;-73
2023/03/23 04:54:16;;;;;;;2.40;1.50;;;14.90;70.40;;;;;;5005187;28;20417;-71
2023/03/23 04:57:03;;;;;;;5.50;1.90;;;14.80;71.20;;;;;;5011022;28;21006;-70
2023/03/23 04:59:48;;;;;;;3.23;1.70;;;14.80;70.40;;;;;;5006413;28;20449;-72
2023/03/23 05:02:34;;;;;;;2.17;1.23;;;14.80;72.10;;;;;;5006406;28;20422;-71
2023/03/23 05:05:22;;;;;;;3.37;2.13;;;14.80;73.60;;;;;;5014155;28;20932;-70
2023/03/23 05:08:07;;;;;;;3.47;1.90;;;14.80;78.20;;;;;;5002948;28;20443;-70
2023/03/23 05:10:54;;;;;;;3.50;2.10;;;14.70;77.00;;;;;;5002864;28;20613;-74
2023/03/23 05:13:40;;;;;;;4.17;2.20;;;14.60;79.90;;;;;;5000836;28;20455;-71
2023/03/23 05:16:28;;;;;;;3.67;2.00;;;14.70;81.50;;;;;;5001861;28;20479;-70
2023/03/23 05:19:14;;;;;;;3.50;1.83;;;14.60;82.00;;;;;;5001862;28;21963;-72
2023/03/23 05:22:02;;;;;;;3.57;2.20;;;14.60;83.50;;;;;;5003583;28;20824;-73
2023/03/23 05:24:51;;;;;;;3.43;2.00;;;14.60;82.30;;;;;;4999542;28;20519;-73
2023/03/23 05:27:37;;;;;;;3.40;1.97;;;14.60;83.70;;;;;;5005336;28;20903;-72
2023/03/23 05:30:23;;;;;;;3.10;1.80;;;14.50;82.10;;;;;;5001857;28;20591;-72
2023/03/23 05:33:08;;;;;;;2.63;1.73;;;14.50;83.50;;;;;;5002237;28;20964;-72
2023/03/23 05:35:54;;;;;;;4.77;2.23;;;14.50;83.70;;;;;;4998525;28;20444;-73
2023/03/23 05:38:45;;;;;;;3.37;2.00;;;14.40;82.30;;;;;;5005835;28;20538;-73
2023/03/23 05:41:30;;;;;;;3.43;1.97;;;14.50;82.70;;;;;;5006726;28;20505;-70
2023/03/23 05:44:16;;;;;;;3.87;1.90;;;14.40;81.60;;;;;;5001321;28;20431;-73
2023/03/23 05:47:01;;;;;;;5.77;3.20;;;14.50;82.90;;;;;;5007223;28;20486;-72
2023/03/23 05:49:47;;;;;;;4.07;2.20;;;14.50;83.60;;;;;;4999378;28;20531;-73
2023/03/23 05:52:35;;;;;;;2.70;1.90;;;14.50;81.70;;;;;;5006487;28;20423;-72
2023/03/23 05:55:22;;;;;;;5.40;1.77;;;14.50;81.00;;;;;;5005670;28;20463;-73
2023/03/23 05:58:07;;;;;;;3.50;1.90;;;14.50;82.00;;;;;;5000905;28;20984;-73
2023/03/23 06:00:55;;;;;;;3.77;1.63;;;14.50;82.00;;;;;;5002571;28;21082;-72
2023/03/23 06:03:40;;;;;;;5.57;2.03;;;14.50;81.30;;;;;;5001040;28;20461;-73
2023/03/23 06:06:26;;;;;;;3.43;1.77;;;14.60;79.50;;;;;;5000116;28;20489;-72
2023/03/23 06:09:12;;;;;;;6.50;2.03;;;14.60;79.50;;;;;;5003437;28;20560;-72
2023/03/23 06:11:59;;;;;;;2.87;1.40;;;14.60;79.90;;;;;;5006468;28;20452;-72
2023/03/23 06:14:45;;;;;;;4.17;2.10;;;14.60;79.50;;;;;;5009329;28;20499;-74
2023/03/23 06:17:30;;;;;;;2.80;1.70;;;14.50;80.60;;;;;;5009768;28;20468;-74
2023/03/23 06:20:16;;;;;;;3.03;2.00;;;14.50;80.40;;;;;;5004422;28;20953;-74
2023/03/23 06:23:03;;;;;;;2.53;1.60;;;14.50;80.30;;;;;;5007329;28;20443;-74
2023/03/23 06:25:49;;;;;;;3.33;1.90;;;14.50;80.60;;;;;;5005390;28;20551;-74
2023/03/23 06:28:36;;;;;;;7.43;2.20;;;14.60;80.40;;;;;;4997164;28;20505;-74
2023/03/23 06:31:22;;;;;;;3.97;1.83;;;14.70;79.90;;;;;;5004294;28;21018;-74
2023/03/23 06:34:08;;;;;;;5.50;2.27;;;14.60;79.50;;;;;;5001973;28;20442;-74
2023/03/23 06:36:54;;;;;;;3.57;1.90;;;14.60;80.00;;;;;;5001823;28;20821;-74
2023/03/23 06:39:40;;;;;;;3.10;2.10;;;14.60;82.20;;;;;;5008117;28;20526;-73
2023/03/23 06:42:25;;;;;;;3.67;2.00;;;14.60;81.90;;;;;;5001926;28;20439;-74
2023/03/23 06:45:13;;;;;;;3.30;1.90;;;14.60;81.20;;;;;;5003877;28;20572;-73
2023/03/23 06:47:58;;;;;;;4.30;2.23;;;14.50;81.90;;;;;;5002285;28;20529;-73
2023/03/23 06:50:45;;;;;;;6.67;2.33;;;14.50;82.90;;;;;;5002527;28;20500;-73
2023/03/23 06:53:30;;;;;;;3.77;2.20;;;14.60;82.90;;;;;;5002769;28;20443;-73
2023/03/23 06:56:16;;;;;;;2.60;1.70;;;14.60;82.00;;;;;;5002866;28;20452;-73
2023/03/23 06:59:03;;;;;;;3.07;2.10;;;14.60;83.20;;;;;;5005849;28;20960;-74
2023/03/23 07:01:49;;;;;;;3.17;2.07;;;14.60;83.70;;;;;;4997103;28;20465;-73
2023/03/23 07:04:35;;;;;;;4.53;2.40;;;14.60;84.10;;;;;;5005375;28;20977;-73
2023/03/23 07:07:21;;;;;;;4.33;2.50;;;14.50;83.70;;;;;;5001763;28;20589;-74
2023/03/23 07:10:08;;;;;;;5.87;2.63;;;14.50;85.00;;;;;;5000325;28;21263;-73
2023/03/23 07:12:54;;;;;;;3.37;2.33;;;14.50;87.80;;;;;;5002999;28;20793;-73
2023/03/23 07:15:40;;;;;;;4.57;2.60;;;14.40;90.00;;;;;;5003835;28;20522;-73
2023/03/23 07:18:27;;;;;;;5.23;2.20;;;14.30;91.60;;;;;;5004470;28;20948;-73
2023/03/23 07:21:12;;;;;;;4.63;2.90;;;14.30;92.60;;;;;;5005197;28;20813;-73
2023/03/23 07:23:58;;;;;;;6.20;2.80;;;14.30;96.50;;;;;;5005035;28;20945;-73
2023/03/23 07:26:43;;;;;;;3.40;2.60;;;14.30;99.40;;;;;;5001878;28;20463;-74
2023/03/23 07:29:29;;;;;;;4.07;2.70;;;14.20;99.90;;;;;;4996799;28;20448;-74
2023/03/23 07:32:15;;;;;;;7.70;2.40;;;14.20;99.90;;;;;;5002733;28;20422;-74
2023/03/23 07:35:02;;;;;;;3.87;2.70;;;14.20;99.90;;;;;;4997536;28;20418;-73
2023/03/23 07:37:48;;;;;;;4.13;2.90;;;14.10;99.90;;;;;;4997110;28;20533;-73
2023/03/23 07:40:34;;;;;;;3.20;2.77;;;14.00;99.90;;;;;;5001345;28;20997;-73
2023/03/23 07:43:20;;;;;;;4.50;2.73;;;14.00;99.90;;;;;;5004032;28;20425;-73
2023/03/23 07:46:06;;;;;;;5.50;4.10;;;13.90;99.90;;;;;;4999596;28;20425;-74
2023/03/23 07:48:52;;;;;;;4.30;2.70;;;13.90;99.90;;;;;;5001470;28;20456;-74
2023/03/23 07:51:40;;;;;;;4.10;2.20;;;13.90;99.90;;;;;;4996614;28;20452;-73
2023/03/23 07:54:26;;;;;;;5.80;2.00;;;13.90;99.90;;;;;;5004051;28;21084;-74
2023/03/23 07:57:12;;;;;;;3.90;2.43;;;13.90;99.90;;;;;;5004523;28;21000;-74
2023/03/23 07:59:58;;;;;;;8.90;2.67;;;14.00;99.90;;;;;;5000711;28;20485;-74
2023/03/23 08:02:43;;;;;;;3.03;1.93;;;14.00;99.90;;;;;;5010837;28;20881;-73
2023/03/23 08:05:29;;;;;;;2.60;1.70;;;14.00;99.90;;;;;;4999836;28;20864;-73
2023/03/23 08:08:16;;;;;;;4.73;1.90;;;14.10;99.90;;;;;;5005222;28;20436;-74
2023/03/23 08:11:02;;;;;;;3.50;1.60;;;14.20;99.90;;;;;;5000516;28;20996;-73
2023/03/23 08:13:48;;;;;;;3.43;1.13;;;14.20;99.90;;;;;;5004834;28;20509;-73
2023/03/23 08:16:33;;;;;;;3.03;1.50;;;14.20;99.90;;;;;;5003899;28;20511;-73
2023/03/23 08:19:19;;;;;;;2.00;1.10;;;14.30;99.90;;;;;;5004619;28;20444;-73
2023/03/23 08:22:05;;;;;;;1.83;0.93;;;14.30;99.90;;;;;;4996604;28;20541;-74
2023/03/23 08:24:52;;;;;;;2.43;1.20;;;14.30;99.90;;;;;;5001396;28;20417;-74
2023/03/23 08:27:42;;;;;;;1.93;1.30;;;14.20;99.90;;;;;;5000413;28;20447;-74
2023/03/23 08:30:29;;;;;;;1.80;1.10;;;14.20;99.90;;;;;;4998491;28;20467;-74
2023/03/23 08:33:15;;;;;;;3.10;1.50;;;14.20;99.90;;;;;;5003979;28;20965;-73
2023/03/23 08:36:02;;;;;;;2.20;1.20;;;14.20;99.90;;;;;;5005225;28;20455;-74
2023/03/23 08:38:48;;;;;;;2.37;1.50;;;14.20;99.90;;;;;;4993862;28;20469;-74
2023/03/23 08:41:35;;;;;;;2.90;1.60;;;14.10;99.90;;;;;;4997919;28;20464;-74
2023/03/23 08:44:21;;;;;;;3.20;1.30;;;14.10;99.90;;;;;;4997195;28;21280;-74
2023/03/23 08:47:07;;;;;;;3.10;1.20;;;14.10;99.90;;;;;;5006014;28;20632;-74
2023/03/23 08:49:53;;;;;;;3.60;1.67;;;14.10;99.90;;;;;;4998115;28;20942;-74
2023/03/23 08:52:39;;;;;;;3.53;2.23;;;14.00;99.90;;;;;;5002662;28;20512;-73
2023/03/23 08:55:26;;;;;;;2.77;1.37;;;14.10;99.90;;;;;;5000173;28;20419;-73
2023/03/23 08:58:13;;;;;;;3.57;1.87;;;14.00;99.90;;;;;;5003730;28;20552;-74
2023/03/23 09:00:58;;;;;;;2.00;1.20;;;14.00;99.90;;;;;;5009045;28;21003;-74
2023/03/23 09:03:44;;;;;;;3.30;1.70;;;14.00;99.90;;;;;;5012449;28;20442;-73
2023/03/23 09:06:30;;;;;;;3.00;1.40;;;13.90;99.90;;;;;;5002205;28;20509;-74
2023/03/23 09:09:15;;;;;;;2.40;1.50;;;13.90;99.90;;;;;;5006856;28;20459;-74
2023/03/23 09:12:01;;;;;;;3.23;1.20;;;14.00;99.90;;;;;;5010425;28;20415;-73
2023/03/23 09:14:48;;;;;;;2.90;1.67;;;14.00;99.90;;;;;;4997537;28;20443;-74
2023/03/23 09:17:34;;;;;;;5.30;1.70;;;13.90;99.90;;;;;;5000595;28;20524;-74
2023/03/23 09:20:22;;;;;;;2.37;1.67;;;13.90;99.90;;;;;;5007429;28;20490;-74
2023/03/23 09:23:07;;;;;;;3.37;1.50;;;13.90;99.90;;;;;;5008270;28;20821;-73
2023/03/23 09:25:54;;;;;;;4.60;1.50;;;14.00;99.90;;;;;;5008832;28;20450;-74
2023/03/23 09:28:39;;;;;;;5.37;1.70;;;13.90;99.90;;;;;;5007118;28;20421;-73
2023/03/23 09:31:27;;;;;;;2.20;1.50;;;13.90;99.90;;;;;;5013688;28;20467;-73
2023/03/23 09:34:13;;;;;;;3.37;1.60;;;13.90;99.90;;;;;;5003863;28;20472;-74
2023/03/23 09:36:59;;;;;;;6.17;1.90;;;13.90;99.90;;;;;;4999885;28;20470;-74
2023/03/23 09:39:45;;;;;;;3.00;2.17;;;13.90;99.90;;;;;;5002091;28;20493;-73
2023/03/23 09:42:42;;;;;;;2.80;1.70;;;13.90;99.90;;;;;;5005034;28;20422;-74
2023/03/23 09:45:36;;;;;;;4.23;2.17;;;13.90;99.90;;;;;;5004457;28;20433;-74
2023/03/23 09:48:35;;;;;;;2.47;1.53;;;14.00;99.90;;;;;;5000689;28;20450;-74
2023/03/23 09:51:32;;;;;;;2.70;1.57;;;14.00;99.90;;;;;;5003582;28;20441;-74
2023/03/23 09:54:22;;;;;;;5.47;1.80;;;14.10;99.90;;;;;;5006004;28;20432;-74
2023/03/23 09:57:16;;;;;;;3.30;1.67;;;14.10;99.90;;;;;;5001858;28;20456;-74
2023/03/23 10:00:14;;;;;;;2.97;1.90;;;14.20;99.90;;;;;;5007953;28;20452;-74
2023/03/23 10:03:06;;;;;;;4.70;1.90;;;14.10;99.90;;;;;;5005714;28;20533;-73
2023/03/23 10:05:54;;;;;;;2.53;1.40;;;14.20;99.90;;;;;;5004673;28;20482;-73
2023/03/23 10:08:44;;;;;;;2.60;1.60;;;14.20;99.90;;;;;;5004878;28;20443;-74
2023/03/23 10:11:40;;;;;;;3.63;1.70;;;14.30;99.90;;;;;;5004356;28;20615;-74
2023/03/23 10:14:38;;;;;;;5.80;1.20;;;14.40;99.90;;;;;;5003359;28;20449;-74
2023/03/23 10:17:28;;;;;;;3.77;1.30;;;14.40;99.90;;;;;;4997625;28;20566;-73
2023/03/23 10:20:31;;;;;;;2.23;1.13;;;14.40;99.90;;;;;;5004642;28;20471;-73
2023/03/23 10:23:47;;;;;;;2.27;1.13;;;14.40;99.90;;;;;;5001269;28;20458;-73
2023/03/23 10:26:40;;;;;;;2.30;1.40;;;14.40;99.90;;;;;;5001607;28;20471;-74
2023/03/23 10:29:30;;;;;;;2.00;1.00;;;14.30;99.90;;;;;;5007997;28;20956;-73
2023/03/23 10:32:19;;;;;;;3.20;1.35;;;14.40;99.90;;;;;;5005093;28;20462;-74
2023/03/23 10:35:09;;;;;;;6.60;1.60;;;14.40;99.90;;;;;;5003382;28;20325;-73
2023/03/23 10:37:59;;;;;;;3.30;1.87;;;14.50;99.90;;;;;;5005160;28;20819;-73
2023/03/23 10:40:52;;;;;;;2.50;1.60;;;14.50;99.90;;;;;;5010155;28;20435;-74
2023/03/23 10:43:37;;;;;;;4.43;1.60;;;14.60;99.90;;;;;;5010865;28;20419;-73
2023/03/23 10:46:30;;;;;;;2.80;1.70;;;14.60;99.90;;;;;;5004753;28;20429;-74
2023/03/23 10:49:20;;;;;;;4.87;1.43;;;14.60;99.90;;;;;;5004901;28;20414;-73
2023/03/23 10:52:14;;;;;;;3.17;2.30;;;14.70;99.90;;;;;;5006248;28;20467;-73
2023/03/23 10:55:04;;;;;;;3.30;1.57;;;14.70;99.90;;;;;;5006399;28;20422;-73
2023/03/23 10:58:02;;;;;;;2.47;1.50;;;14.60;99.90;;;;;;4998634;28;20979;-73
2023/03/23 11:00:48;;;;;;;5.97;1.40;;;14.60;99.90;;;;;;5003491;28;20605;-73
2023/03/23 11:03:42;;;;;;;3.30;1.30;;;14.70;99.90;;;;;;5006659;28;20621;-73
2023/03/23 11:06:30;;;;;;;4.43;1.77;;;14.70;99.90;;;;;;4993343;28;20507;-73
2023/03/23 11:09:17;;;;;;;2.33;1.20;;;14.80;99.90;;;;;;5010074;28;20418;-73
2023/03/23 11:12:03;;;;;;;2.17;1.33;;;14.70;99.90;;;;;;5005101;28;20462;-72
2023/03/23 11:14:51;;;;;;;2.07;1.23;;;14.70;99.90;;;;;;5009805;28;20594;-72
2023/03/23 11:17:36;;;;;;;2.40;1.37;;;14.70;99.90;;;;;;4999355;28;20454;-72
2023/03/23 11:20:23;;;;;;;9.77;5.70;;;14.70;99.90;;;;;;5004950;28;20450;-74
2023/03/23 11:23:21;;;;;;;8.53;5.23;;;14.60;99.90;;;;;;4997652;28;20467;-73
2023/03/23 11:26:14;;;;;;;3.10;1.50;;;14.60;99.90;;;;;;5005607;28;20952;-73
2023/03/23 11:29:03;;;;;;;4.10;2.20;;;14.60;99.90;;;;;;5012331;28;20764;-73
2023/03/23 11:31:55;;;;;;;2.30;1.37;;;14.60;99.90;;;;;;5009516;28;20404;-73
2023/03/23 11:34:43;;;;;;;9.03;5.10;;;14.60;99.90;;;;;;5011466;28;20403;-73
2023/03/23 11:37:33;;;;;;;9.50;6.13;;;14.50;99.90;;;;;;5000513;28;20426;-73
2023/03/23 11:40:21;;;;;;;2.80;1.80;;;14.50;99.90;;;;;;5011362;28;20471;-73
2023/03/23 11:43:11;;;;;;;3.23;1.80;;;14.50;99.90;;;;;;5011215;28;20587;-73
2023/03/23 11:46:06;;;;;;;3.10;2.20;;;14.50;99.90;;;;;;5002356;28;21009;-73
2023/03/23 11:48:58;;;;;;;3.00;1.80;;;14.50;99.90;;;;;;5007853;28;20439;-73
2023/03/23 11:51:49;;;;;;;3.07;2.17;;;14.40;99.90;;;;;;5011694;28;20554;-73
2023/03/23 11:54:39;;;;;;;3.20;1.80;;;14.40;99.90;;;;;;5010757;28;20517;-73
2023/03/23 11:57:25;;;;;;;1.80;1.23;;;14.50;99.90;;;;;;5000232;28;20766;-73
2023/03/23 12:00:18;;;;;;;7.00;1.77;;;14.50;99.90;;;;;;5011002;28;20975;-73
2023/03/23 12:03:23;;;;;;;1.70;1.00;;;14.60;99.90;;;;;;5011364;28;20780;-73
2023/03/23 12:06:12;;;;;;;2.50;1.30;;;14.50;99.90;;;;;;5005366;28;20452;-73
2023/03/23 12:09:07;;;;;;;2.30;1.50;;;14.50;99.90;;;;;;5010843;28;20917;-73
2023/03/23 12:12:03;;;;;;;2.43;1.30;;;14.60;99.90;;;;;;5041178;22;20473;-72
2023/03/23 12:14:57;;;;;;;2.83;1.30;;;14.60;99.90;;;;;;5027322;28;20514;-73
2023/03/23 12:17:52;;;;;;;2.37;1.30;;;14.60;99.90;;;;;;5028749;28;20915;-70
2023/03/23 12:20:47;;;;;;;1.90;1.00;;;14.60;99.90;;;;;;5030508;28;20449;-70
2023/03/23 12:23:39;;;;;;;1.80;1.20;;;14.60;99.90;;;;;;5018119;28;20396;-70
2023/03/23 12:26:30;;;;;;;2.23;1.43;;;14.60;99.90;;;;;;5027501;28;20442;-70
2023/03/23 12:29:40;;;;;;;1.90;1.10;;;14.60;99.90;;;;;;5022857;28;20532;-70
2023/03/23 12:32:41;;;;;;;2.00;1.20;;;14.70;99.90;;;;;;5027962;28;20426;-70
2023/03/23 12:35:39;;;;;;;3.60;1.50;;;14.70;99.90;;;;;;5029421;28;20438;-70
2023/03/23 12:38:50;;;;;;;2.00;1.20;;;14.70;99.90;;;;;;5028522;28;20540;-70
2023/03/23 12:41:44;;;;;;;2.77;1.50;;;14.70;99.90;;;;;;5031685;28;20416;-70
2023/03/23 12:44:36;;;;;;;3.40;1.80;;;14.70;99.90;;;;;;5027738;28;20435;-70
2023/03/23 12:47:32;;;;;;;3.10;1.90;;;14.70;99.90;;;;;;5028481;28;20535;-71
2023/03/23 12:50:22;;;;;;;2.10;1.30;;;14.60;99.90;;;;;;5034513;28;20440;-71
2023/03/23 12:53:12;;;;;;;2.47;1.23;;;14.70;99.90;;;;;;5034133;28;20468;-70
2023/03/23 12:56:13;;;;;;;3.13;1.30;;;14.70;99.90;;;;;;5025410;28;20429;-70
2023/03/23 12:59:04;;;;;;;2.13;1.00;;;14.70;99.90;;;;;;5029717;28;20445;-71
2023/03/23 13:01:53;;;;;;;2.20;1.17;;;14.80;99.90;;;;;;5027021;28;20792;-71
2023/03/23 13:04:45;;;;;;;2.63;1.30;;;14.90;99.90;;;;;;5033895;28;20941;-70
2023/03/23 13:07:36;;;;;;;4.20;1.50;;;14.90;99.90;;;;;;5026582;28;20458;-70
2023/03/23 13:10:24;;;;;;;3.07;1.57;;;14.90;99.90;;;;;;5020661;28;20624;-71
2023/03/23 13:13:17;;;;;;;2.57;1.43;;;15.00;99.90;;;;;;5026368;28;22022;-70
2023/03/23 13:16:08;;;;;;;2.57;1.50;;;15.10;99.90;;;;;;5031322;28;20397;-70
2023/03/23 13:19:08;;;;;;;2.90;1.30;;;15.10;99.90;;;;;;5019485;28;20591;-71
2023/03/23 13:22:02;;;;;;;3.47;2.30;;;15.10;99.90;;;;;;5029588;28;20440;-71
2023/03/23 13:24:53;;;;;;;5.47;2.70;;;15.10;99.90;;;;;;5016704;28;20425;-70
2023/03/23 13:27:39;;;;;;;8.73;3.03;;;15.10;99.90;;;;;;5021253;28;20423;-70
2023/03/23 13:30:28;;;;;;;3.20;1.60;;;15.10;99.90;;;;;;5016396;28;20954;-71
2023/03/23 13:33:15;;;;;;;1.90;1.20;;;15.10;99.90;;;;;;5018767;28;20503;-71
2023/03/23 13:36:11;;;;;;;3.50;1.57;;;15.00;99.90;;;;;;5028373;28;20617;-70
2023/03/23 13:39:00;;;;;;;2.17;1.50;;;14.90;99.90;;;;;;5027789;28;20475;-70
2023/03/23 13:41:50;;;;;;;2.70;1.90;;;14.90;99.90;;;;;;5023067;28;20560;-70
2023/03/23 13:45:06;;;;;;;2.90;2.10;;;14.80;99.90;;;;;;5021740;28;20426;-70
2023/03/23 13:48:05;;;;;;;3.40;1.80;;;14.80;99.90;;;;;;5023265;28;20421;-70
2023/03/23 13:50:56;;;;;;;3.73;1.97;;;14.90;99.90;;;;;;5019633;28;20475;-70
2023/03/23 13:53:46;;;;;;;2.30;1.40;;;14.80;99.90;;;;;;5025866;28;20454;-71
2023/03/23 13:56:41;;;;;;;4.40;2.03;;;14.80;99.90;;;;;;5027929;28;20971;-71
2023/03/23 13:59:33;;;;;;;3.37;1.87;;;14.90;99.90;;;;;;5025952;28;20481;-70
2023/03/23 14:02:30;;;;;;;3.13;1.63;;;14.80;99.90;;;;;;5021316;28;20446;-71
2023/03/23 14:05:33;;;;;;;2.90;1.53;;;14.80;99.90;;;;;;5026265;28;20483;-71
2023/03/23 14:08:25;;;;;;;2.73;1.77;;;14.80;99.90;;;;;;5026760;28;20501;-70
2023/03/23 14:11:14;;;;;;;2.13;1.73;;;14.80;99.90;;;;;;5026848;28;20474;-70
2023/03/23 14:14:04;;;;;;;4.10;1.67;;;14.80;99.90;;;;;;5022311;28;20530;-71
2023/03/23 14:16:52;;;;;;;4.30;1.80;;;14.80;99.90;;;;;;5020175;28;20468;-71
2023/03/23 14:19:40;;;;;;;3.67;2.00;;;14.80;99.90;;;;;;5022796;28;20529;-71
2023/03/23 14:22:29;;;;;;;3.30;2.37;;;14.80;99.90;;;;;;5021713;28;20987;-71
2023/03/23 14:25:17;;;;;;;4.40;2.40;;;14.80;99.90;;;;;;5027285;28;20441;-71
2023/03/23 14:28:03;;;;;;;3.20;1.90;;;14.80;99.90;;;;;;5030693;28;20400;-71
2023/03/23 14:30:53;;;;;;;3.60;2.03;;;14.80;99.90;;;;;;5020712;28;20965;-71
2023/03/23 14:33:41;;;;;;;3.00;2.00;;;14.80;99.90;;;;;;5018866;28;21275;-71
2023/03/23 14:36:29;;;;;;;3.73;2.40;;;14.80;99.90;;;;;;5032314;28;20411;-71
2023/03/23 14:39:21;;;;;;;3.57;2.40;;;14.80;99.90;;;;;;5021810;28;20472;-71
2023/03/23 14:42:12;;;;;;;3.00;2.10;;;14.80;99.90;;;;;;5024926;28;20845;-71
2023/03/23 14:45:00;;;;;;;3.50;2.00;;;14.90;99.90;;;;;;5024762;28;20541;-71
2023/03/23 14:47:47;;;;;;;2.80;2.03;;;14.80;99.90;;;;;;5024691;28;20399;-70
2023/03/23 14:50:40;;;;;;;4.90;2.17;;;14.90;99.90;;;;;;5017724;28;20885;-71